Time;durP1;ratioP1;P1;durP2;ratioP2;P2;SDS_P1;SDS_P2;PMS_P1;PMS_P2;Temp;Humidity;BMP_temperature;BMP_pressure;BME280_temperature;BME280_humidity;BME280_pressure;Samples;Min_cycle;Max_cycle;Signal;HPM_P1;HPM_P2
2023/04/10 00:02:15;;;;;;;10.48;8.60;;;;;;;8.83;70.73;102042.19;5040399;28;20056;-57
2023/04/10 00:04:40;;;;;;;11.15;8.80;;;;;;;8.83;70.52;102039.56;5045254;28;20026;-56
2023/04/10 00:07:05;;;;;;;10.90;8.68;;;;;;;8.81;70.47;102030.81;5035339;28;20021;-54
2023/04/10 00:09:31;;;;;;;10.38;8.88;;;;;;;8.79;70.73;102019.47;5034669;28;20022;-57
2023/04/10 00:11:56;;;;;;;11.75;8.55;;;;;;;8.77;70.96;102016.00;5029913;28;20295;-53
2023/04/10 00:14:24;;;;;;;11.10;8.70;;;;;;;8.77;70.80;102013.34;5042359;28;20422;-55
2023/04/10 00:16:50;;;;;;;10.88;8.77;;;;;;;8.76;70.62;102006.38;5025643;28;20032;-56
2023/04/10 00:19:15;;;;;;;11.68;9.52;;;;;;;8.75;70.56;102003.78;5032540;28;20034;-53
2023/04/10 00:21:41;;;;;;;9.68;8.15;;;;;;;8.74;70.45;102000.25;5035234;28;20029;-56
2023/04/10 00:24:06;;;;;;;11.68;8.60;;;;;;;8.73;70.58;102001.22;5022412;28;20033;-55
2023/04/10 00:26:34;;;;;;;10.43;8.55;;;;;;;8.72;70.33;102001.28;5049713;28;20052;-54
2023/04/10 00:28:59;;;;;;;11.27;8.38;;;;;;;8.71;70.48;101995.16;5046196;28;20031;-55
2023/04/10 00:31:25;;;;;;;9.07;8.00;;;;;;;8.70;70.44;101999.56;5046732;28;20029;-56
2023/04/10 00:33:50;;;;;;;11.75;8.30;;;;;;;8.68;70.42;101992.66;5044863;28;20034;-55
2023/04/10 00:36:17;;;;;;;10.48;8.60;;;;;;;8.66;70.51;101989.19;5047209;28;20119;-56
2023/04/10 00:38:42;;;;;;;9.68;8.05;;;;;;;8.65;70.44;101983.06;5044260;28;20622;-54
2023/04/10 00:41:08;;;;;;;10.23;8.85;;;;;;;8.64;70.53;101985.78;5036794;28;20113;-56
2023/04/10 00:43:33;;;;;;;11.02;7.90;;;;;;;8.62;70.37;101983.19;5038919;28;20101;-56
2023/04/10 00:45:59;;;;;;;9.50;8.07;;;;;;;8.61;70.13;101976.22;5038902;28;20484;-56
2023/04/10 00:48:25;;;;;;;10.18;8.30;;;;;;;8.58;70.41;101976.34;5037598;28;20029;-56
2023/04/10 00:50:50;;;;;;;9.15;8.13;;;;;;;8.56;70.22;101975.59;5034145;28;20029;-56
2023/04/10 00:53:16;;;;;;;10.55;8.80;;;;;;;8.52;70.58;101974.84;5012103;28;20030;-56
2023/04/10 00:55:42;;;;;;;10.65;8.60;;;;;;;8.50;70.58;101966.13;5016107;28;20026;-55
2023/04/10 00:58:10;;;;;;;9.20;8.10;;;;;;;8.49;70.62;101974.16;5021353;28;20108;-55
2023/04/10 01:00:35;;;;;;;9.88;8.60;;;;;;;8.48;71.01;101977.75;5025356;28;20459;-56
2023/04/10 01:03:00;;;;;;;11.68;8.20;;;;;;;8.45;70.59;101976.09;5038562;28;20039;-56
2023/04/10 01:05:44;;;;;;;10.30;8.32;;;;;;;8.42;70.88;101980.66;5019744;28;20049;-54
2023/04/10 01:08:22;;;;;;;9.25;8.07;;;;;;;8.41;70.70;101968.34;5039582;28;20120;-55
2023/04/10 01:11:06;;;;;;;10.48;7.88;;;;;;;8.38;70.47;101966.72;5027216;28;20068;-53
2023/04/10 01:13:39;;;;;;;12.55;8.30;;;;;;;8.35;70.77;101969.53;5026201;28;20067;-56
2023/04/10 01:16:10;;;;;;;9.93;8.25;;;;;;;8.33;70.92;101968.75;5033613;28;20107;-53
2023/04/10 01:19:10;;;;;;;10.40;8.48;;;;;;;8.36;70.57;101962.41;5034178;28;20033;-56
2023/04/10 01:21:37;;;;;;;9.45;7.60;;;;;;;8.32;71.07;101961.72;5042564;28;20527;-57
2023/04/10 01:24:13;;;;;;;9.43;7.40;;;;;;;8.31;70.92;101962.66;5045785;28;20028;-56
2023/04/10 01:27:06;;;;;;;9.07;7.88;;;;;;;8.29;70.86;101957.47;5028212;28;20038;-56
2023/04/10 01:29:35;;;;;;;10.45;7.57;;;;;;;8.27;70.90;101959.28;5022509;28;20340;-56
2023/04/10 01:32:03;;;;;;;9.02;7.60;;;;;;;8.27;70.88;101955.81;5033700;28;20367;-56
2023/04/10 01:34:36;;;;;;;8.85;7.80;;;;;;;8.26;71.22;101956.72;5041405;28;20021;-56
2023/04/10 01:37:07;;;;;;;9.82;8.05;;;;;;;8.23;71.11;101957.75;5038806;28;20106;-56
2023/04/10 01:39:36;;;;;;;9.57;7.55;;;;;;;8.20;71.14;101947.31;5027261;28;20042;-56
2023/04/10 01:42:04;;;;;;;;;;;;;;;8.27;70.16;101953.16;5031891;28;20417;-56
2023/04/10 01:44:31;;;;;;;9.75;8.23;;;;;;;8.19;71.05;101945.56;5041264;28;19917;-56
2023/04/10 01:46:58;;;;;;;9.43;7.97;;;;;;;8.15;71.32;101941.38;5049329;28;20021;-56
2023/04/10 01:49:26;;;;;;;8.93;7.97;;;;;;;8.12;71.34;101945.03;5043632;28;20104;-55
2023/04/10 01:51:57;;;;;;;10.63;8.32;;;;;;;8.10;71.46;101936.31;5045721;28;20025;-56
2023/04/10 01:54:24;;;;;;;10.52;8.20;;;;;;;8.08;71.39;101938.19;5047049;28;20103;-54
2023/04/10 01:56:50;;;;;;;9.95;8.05;;;;;;;8.05;71.61;101933.03;5044238;28;20029;-56
2023/04/10 01:59:15;;;;;;;10.15;7.95;;;;;;;8.04;71.73;101928.66;5024163;28;20463;-56
2023/04/10 02:01:41;;;;;;;10.32;8.35;;;;;;;8.02;71.78;101927.03;5022832;28;20064;-55
2023/04/10 02:04:06;;;;;;;10.38;8.20;;;;;;;8.01;72.07;101920.00;5045556;28;20490;-55
2023/04/10 02:06:38;;;;;;;9.60;8.00;;;;;;;7.99;71.92;101909.50;5044905;28;20029;-54
2023/04/10 02:09:09;;;;;;;9.35;8.35;;;;;;;7.97;71.76;101906.94;5045296;28;20040;-57
2023/04/10 02:11:51;;;;;;;9.25;8.20;;;;;;;7.98;71.44;101899.88;5049399;28;20553;-56
2023/04/10 02:14:20;;;;;;;9.00;8.10;;;;;;;7.96;72.07;101907.03;5048490;28;20025;-57
2023/04/10 02:16:48;;;;;;;10.63;8.73;;;;;;;7.95;71.89;101897.38;5032866;28;20030;-53
2023/04/10 02:19:14;;;;;;;9.07;7.95;;;;;;;7.93;71.98;101894.81;5024718;28;20434;-52
2023/04/10 02:21:41;;;;;;;8.90;8.00;;;;;;;7.93;71.82;101896.59;5039967;28;20056;-52
2023/04/10 02:24:06;;;;;;;9.90;8.32;;;;;;;7.93;72.09;101896.59;5037426;28;20410;-57
2023/04/10 02:26:48;;;;;;;9.60;8.02;;;;;;;7.93;71.99;101892.16;5025639;28;20026;-56
2023/04/10 02:29:14;;;;;;;9.15;8.18;;;;;;;7.90;72.22;101892.31;5031959;28;20120;-56
2023/04/10 02:31:40;;;;;;;11.23;7.95;;;;;;;7.89;72.19;101895.91;5032484;28;20116;-56
2023/04/10 02:34:06;;;;;;;9.52;7.65;;;;;;;7.87;71.99;101896.88;5042776;28;20075;-55
2023/04/10 02:36:32;;;;;;;10.40;8.23;;;;;;;7.85;72.38;101894.31;5042499;28;20026;-57
2023/04/10 02:38:58;;;;;;;12.65;8.23;;;;;;;7.84;72.09;101889.94;5042484;28;20040;-57
2023/04/10 02:41:23;;;;;;;10.15;8.30;;;;;;;7.84;72.09;101889.09;5027324;28;20439;-56
2023/04/10 02:43:48;;;;;;;10.02;7.55;;;;;;;7.82;72.34;101886.53;5039776;28;20036;-54
2023/04/10 02:46:14;;;;;;;9.02;8.00;;;;;;;7.82;72.43;101889.16;5037044;28;20029;-56
2023/04/10 02:48:39;;;;;;;10.40;7.47;;;;;;;7.81;72.29;101894.53;5033679;28;20041;-53
2023/04/10 02:51:05;;;;;;;8.90;7.97;;;;;;;7.80;72.11;101895.47;5037513;28;20096;-55
2023/04/10 02:53:32;;;;;;;9.13;7.32;;;;;;;7.77;72.48;101897.31;5043230;28;20067;-54
2023/04/10 02:55:57;;;;;;;8.63;7.70;;;;;;;7.77;72.27;101893.81;5037957;28;20049;-55
2023/04/10 02:58:22;;;;;;;8.88;7.50;;;;;;;7.73;72.14;101887.81;5044429;28;20025;-56
2023/04/10 03:00:49;;;;;;;9.27;8.27;;;;;;;7.74;72.18;101886.91;5027671;28;20382;-56
2023/04/10 03:03:15;;;;;;;8.00;7.20;;;;;;;7.72;72.22;101882.63;5027015;28;20037;-56
2023/04/10 03:05:41;;;;;;;9.27;7.93;;;;;;;7.72;72.56;101885.25;5038736;28;20041;-54
2023/04/10 03:08:06;;;;;;;9.95;7.40;;;;;;;7.71;72.40;101886.19;5021945;28;20025;-56
2023/04/10 03:10:31;;;;;;;9.65;7.70;;;;;;;7.70;72.47;101887.13;5035046;28;20057;-56
2023/04/10 03:12:57;;;;;;;9.00;7.88;;;;;;;7.68;72.49;101889.84;5021691;28;20092;-57
2023/04/10 03:15:22;;;;;;;9.68;7.75;;;;;;;7.66;72.81;101886.41;5027503;28;20032;-56
2023/04/10 03:17:47;;;;;;;8.82;7.57;;;;;;;7.65;72.68;101889.97;5039653;28;20390;-56
2023/04/10 03:20:13;;;;;;;8.95;7.63;;;;;;;7.65;72.63;101897.06;5037997;28;20084;-56
2023/04/10 03:22:38;;;;;;;8.63;7.65;;;;;;;7.64;72.78;101904.13;5040845;28;20119;-57
2023/04/10 03:25:05;;;;;;;9.18;7.63;;;;;;;7.64;72.45;101897.97;5036803;28;20029;-56
2023/04/10 03:27:33;;;;;;;8.70;7.53;;;;;;;7.62;72.59;101892.75;5040636;28;20565;-56
2023/04/10 03:29:58;;;;;;;10.10;8.32;;;;;;;7.63;72.86;101894.50;5029810;28;20486;-56
2023/04/10 03:32:24;;;;;;;9.57;8.52;;;;;;;7.63;72.92;101898.91;5041311;28;20028;-56
2023/04/10 03:34:49;;;;;;;8.90;7.90;;;;;;;7.61;72.27;101885.78;5033998;28;20036;-54
2023/04/10 03:37:14;;;;;;;9.38;8.23;;;;;;;7.60;72.78;101884.06;5043147;28;20385;-56
2023/04/10 03:39:40;;;;;;;10.18;7.97;;;;;;;7.58;72.55;101880.63;5044831;28;20183;-56
2023/04/10 03:42:05;;;;;;;9.15;7.85;;;;;;;7.56;73.12;101872.78;5044311;28;20028;-56
2023/04/10 03:44:30;;;;;;;8.52;7.60;;;;;;;7.54;72.70;101877.28;5046395;28;20035;-53
2023/04/10 03:46:55;;;;;;;13.52;8.50;;;;;;;7.53;72.79;101872.06;5047347;28;20044;-56
2023/04/10 03:49:20;;;;;;;10.05;8.43;;;;;;;7.52;73.10;101867.69;5033955;28;20112;-54
2023/04/10 03:51:46;;;;;;;10.43;8.63;;;;;;;7.50;72.93;101864.28;5031063;28;20048;-56
2023/04/10 03:54:11;;;;;;;10.82;8.75;;;;;;;7.48;73.03;101866.16;5045887;28;20029;-56
2023/04/10 03:56:36;;;;;;;8.88;7.13;;;;;;;7.45;73.09;101861.00;5031388;28;20439;-54
2023/04/10 03:59:01;;;;;;;10.73;8.45;;;;;;;7.44;73.10;101864.56;5039515;28;20021;-55
2023/04/10 04:01:27;;;;;;;11.05;8.88;;;;;;;7.40;72.98;101861.22;5022687;28;20017;-55
2023/04/10 04:03:52;;;;;;;10.07;8.63;;;;;;;7.39;73.32;101857.72;5046521;28;20057;-56
2023/04/10 04:06:17;;;;;;;11.20;7.88;;;;;;;7.37;73.24;101856.91;5038462;28;20022;-57
2023/04/10 04:08:43;;;;;;;8.95;7.45;;;;;;;7.36;73.51;101852.56;5043180;28;20032;-56
2023/04/10 04:11:08;;;;;;;9.95;8.20;;;;;;;7.34;73.52;101851.75;5039674;28;20037;-56
2023/04/10 04:13:33;;;;;;;10.40;8.50;;;;;;;7.32;73.30;101850.97;5047447;28;20104;-55
2023/04/10 04:15:58;;;;;;;9.27;7.82;;;;;;;7.30;73.49;101846.72;5040466;28;20497;-58
2023/04/10 04:18:24;;;;;;;10.52;8.52;;;;;;;7.27;73.55;101839.78;5048827;28;20017;-57
2023/04/10 04:20:49;;;;;;;10.50;8.68;;;;;;;7.26;73.90;101848.66;5043586;28;20482;-55
2023/04/10 04:23:16;;;;;;;9.88;8.30;;;;;;;7.25;73.80;101846.06;5052367;28;20185;-55
2023/04/10 04:25:42;;;;;;;9.85;8.65;;;;;;;7.22;73.80;101837.34;5051517;28;20033;-53
2023/04/10 04:28:08;;;;;;;12.23;8.50;;;;;;;7.19;73.81;101837.50;5047397;28;20035;-56
2023/04/10 04:30:34;;;;;;;11.73;9.50;;;;;;;7.18;74.34;101842.88;5037917;28;20026;-54
2023/04/10 04:32:59;;;;;;;11.52;9.15;;;;;;;7.17;74.00;101839.34;5031393;28;20088;-56
2023/04/10 04:35:24;;;;;;;11.43;9.43;;;;;;;7.14;74.20;101828.91;5031833;28;20029;-57
2023/04/10 04:37:49;;;;;;;10.88;9.07;;;;;;;7.14;74.08;101830.69;5032277;28;20021;-56
2023/04/10 04:40:15;;;;;;;11.55;9.40;;;;;;;7.12;74.18;101828.13;5035917;28;20037;-57
2023/04/10 04:42:40;;;;;;;13.65;9.57;;;;;;;7.11;73.94;101830.84;5024865;28;20033;-56
2023/04/10 04:45:06;;;;;;;13.18;9.45;;;;;;;7.12;74.47;101836.06;5038795;28;20030;-54
2023/04/10 04:47:32;;;;;;;11.85;9.85;;;;;;;7.12;74.51;101829.94;5041022;28;20036;-57
2023/04/10 04:49:57;;;;;;;10.98;8.90;;;;;;;7.10;74.78;101827.34;5033549;28;20026;-55
2023/04/10 04:52:22;;;;;;;12.43;9.52;;;;;;;7.10;74.82;101827.34;5047046;28;20043;-57
2023/04/10 04:54:47;;;;;;;11.52;9.73;;;;;;;7.10;75.02;101832.63;5041372;28;20351;-56
2023/04/10 04:57:13;;;;;;;12.13;9.65;;;;;;;7.10;74.58;101827.34;5043395;28;20079;-56
2023/04/10 04:59:38;;;;;;;11.88;9.50;;;;;;;7.09;74.60;101824.78;5041113;28;20025;-56
2023/04/10 05:02:03;;;;;;;11.77;9.95;;;;;;;7.09;74.57;101827.41;5020602;28;20025;-57
2023/04/10 05:04:29;;;;;;;11.05;9.23;;;;;;;7.07;74.46;101831.94;5031257;28;20399;-55
2023/04/10 05:06:54;;;;;;;10.98;8.95;;;;;;;7.07;74.63;101822.19;5034851;28;20045;-56
2023/04/10 05:09:19;;;;;;;11.25;9.48;;;;;;;7.08;74.38;101823.94;5042023;28;20723;-57
2023/04/10 05:11:45;;;;;;;13.13;9.65;;;;;;;7.08;74.28;101813.38;5046113;28;20025;-57
2023/04/10 05:14:10;;;;;;;10.52;8.90;;;;;;;7.07;74.73;101800.22;5039952;28;20032;-56
2023/04/10 05:16:35;;;;;;;14.02;9.10;;;;;;;7.07;74.52;101797.59;5032742;28;20540;-56
2023/04/10 05:19:00;;;;;;;11.68;8.80;;;;;;;7.07;74.55;101795.78;5043273;28;20029;-57
2023/04/10 05:21:26;;;;;;;11.27;9.25;;;;;;;7.08;74.23;101802.78;5038592;28;20029;-57
2023/04/10 05:23:51;;;;;;;10.80;8.98;;;;;;;7.09;74.18;101793.06;5036742;28;20394;-55
2023/04/10 05:26:16;;;;;;;10.68;8.90;;;;;;;7.10;74.23;101794.81;5045460;28;20025;-57
2023/04/10 05:28:42;;;;;;;11.52;9.00;;;;;;;7.11;73.97;101793.84;5039021;28;20029;-55
2023/04/10 05:31:07;;;;;;;9.70;8.65;;;;;;;7.12;74.08;101793.78;5035071;28;20022;-56
2023/04/10 05:33:32;;;;;;;10.23;8.88;;;;;;;7.14;73.82;101793.72;5033444;28;20025;-56
2023/04/10 05:35:57;;;;;;;11.38;9.10;;;;;;;7.16;73.71;101794.50;5044281;28;20029;-57
2023/04/10 05:38:23;;;;;;;12.27;9.23;;;;;;;7.18;73.45;101796.16;5044399;28;20029;-57
2023/04/10 05:40:49;;;;;;;11.73;9.82;;;;;;;7.21;73.50;101795.13;5032392;28;20025;-57
2023/04/10 05:43:14;;;;;;;9.35;8.40;;;;;;;7.23;73.10;101798.59;5036260;28;20037;-56
2023/04/10 05:45:43;;;;;;;10.88;9.20;;;;;;;7.25;73.45;101796.72;5037582;28;20049;-57
2023/04/10 05:48:08;;;;;;;9.85;8.50;;;;;;;7.29;73.44;101798.28;5036583;28;20038;-57
2023/04/10 05:50:34;;;;;;;8.95;8.05;;;;;;;7.31;73.34;101800.84;5047459;28;20089;-55
2023/04/10 05:52:59;;;;;;;10.27;8.75;;;;;;;7.34;72.71;101800.69;5037349;28;20061;-56
2023/04/10 05:55:25;;;;;;;10.88;8.75;;;;;;;7.37;72.74;101808.50;5023131;28;20112;-54
2023/04/10 05:57:51;;;;;;;9.88;8.57;;;;;;;7.39;72.26;101810.13;5035288;28;20037;-56
2023/04/10 06:00:16;;;;;;;9.43;8.35;;;;;;;7.42;72.87;101806.47;5032286;28;20034;-54
2023/04/10 06:02:42;;;;;;;10.18;8.93;;;;;;;7.46;71.95;101810.72;5031819;28;20525;-54
2023/04/10 06:05:07;;;;;;;9.73;8.70;;;;;;;7.50;72.15;101811.41;5025359;28;20033;-56
2023/04/10 06:07:33;;;;;;;10.40;8.75;;;;;;;7.56;71.88;101811.09;5028897;28;20033;-55
2023/04/10 06:09:58;;;;;;;9.50;8.43;;;;;;;7.58;71.37;101807.47;5025931;28;20049;-56
2023/04/10 06:12:23;;;;;;;9.20;8.25;;;;;;;7.64;71.64;101800.16;5027082;28;20041;-55
2023/04/10 06:14:49;;;;;;;10.02;8.43;;;;;;;7.69;71.13;101806.06;5025003;28;20052;-53
2023/04/10 06:17:14;;;;;;;10.52;8.60;;;;;;;7.73;70.71;101803.22;5027538;28;20167;-56
2023/04/10 06:19:39;;;;;;;11.45;8.93;;;;;;;7.77;71.12;101799.47;5024268;28;20084;-55
2023/04/10 06:22:05;;;;;;;13.32;8.93;;;;;;;7.83;71.03;101803.63;5029336;28;20076;-55
2023/04/10 06:24:30;;;;;;;9.90;8.85;;;;;;;7.88;70.59;101801.59;5057001;28;20037;-55
2023/04/10 06:26:56;;;;;;;10.18;8.68;;;;;;;7.92;70.87;101776.69;5024637;28;20026;-54
2023/04/10 06:29:22;;;;;;;10.57;8.40;;;;;;;7.99;70.47;101781.69;5028705;28;20471;-55
2023/04/10 06:31:47;;;;;;;10.18;8.52;;;;;;;8.03;69.60;101770.88;5034024;28;20036;-55
2023/04/10 06:34:12;;;;;;;10.00;8.07;;;;;;;8.07;69.95;101767.13;5034222;28;20144;-55
2023/04/10 06:36:38;;;;;;;10.43;8.60;;;;;;;8.13;69.16;101765.97;5026943;28;20033;-56
2023/04/10 06:39:03;;;;;;;8.90;8.00;;;;;;;8.18;69.23;101758.63;5030477;28;20042;-56
2023/04/10 06:41:28;;;;;;;9.93;8.25;;;;;;;8.23;68.18;101755.75;5034037;28;20063;-53
2023/04/10 06:43:54;;;;;;;9.75;8.32;;;;;;;8.29;68.44;101755.41;5034152;28;20037;-55
2023/04/10 06:46:19;;;;;;;10.15;9.02;;;;;;;8.33;67.97;101749.03;5030209;28;20042;-57
2023/04/10 06:48:45;;;;;;;9.63;8.13;;;;;;;8.39;67.90;101747.84;5029476;28;20120;-53
2023/04/10 06:51:10;;;;;;;10.88;8.75;;;;;;;8.43;67.55;101738.84;5032063;28;20026;-52
2023/04/10 06:53:35;;;;;;;9.63;8.38;;;;;;;8.47;67.38;101733.28;5029315;28;20033;-54
2023/04/10 06:56:01;;;;;;;9.25;7.95;;;;;;;8.53;67.66;101734.78;5028606;28;20169;-55
2023/04/10 06:58:26;;;;;;;10.30;8.23;;;;;;;8.58;67.01;101735.38;5029576;28;20025;-53
2023/04/10 07:00:53;;;;;;;8.50;7.60;;;;;;;8.64;66.76;101728.88;5034894;28;20041;-56
2023/04/10 07:03:18;;;;;;;10.93;7.80;;;;;;;8.68;66.56;101725.16;5030609;28;20029;-54
2023/04/10 07:05:43;;;;;;;8.52;7.65;;;;;;;8.74;65.98;101718.66;5017809;28;20121;-56
2023/04/10 07:08:08;;;;;;;8.10;7.30;;;;;;;8.78;65.74;101714.91;5030366;28;20078;-54
2023/04/10 07:10:34;;;;;;;7.97;7.18;;;;;;;8.83;66.06;101703.09;5021820;28;20483;-53
2023/04/10 07:13:00;;;;;;;9.25;7.47;;;;;;;8.88;65.47;101711.66;5031248;28;20029;-55
2023/04/10 07:15:26;;;;;;;9.13;7.68;;;;;;;8.93;65.60;101702.59;5021871;28;20518;-54
2023/04/10 07:17:51;;;;;;;8.48;7.57;;;;;;;8.99;65.47;101696.94;5037872;28;20021;-54
2023/04/10 07:20:16;;;;;;;8.43;7.53;;;;;;;9.03;65.43;101696.69;5042957;28;20041;-57
2023/04/10 07:22:41;;;;;;;8.13;7.07;;;;;;;9.07;64.89;101697.38;5027046;28;20175;-57
2023/04/10 07:25:07;;;;;;;8.80;7.82;;;;;;;9.12;65.50;101691.81;5033711;28;20033;-57
2023/04/10 07:27:33;;;;;;;8.52;7.30;;;;;;;9.19;64.71;101682.56;5033767;28;20380;-55
2023/04/10 07:29:58;;;;;;;9.68;7.60;;;;;;;9.23;64.18;101692.06;5025815;28;20040;-55
2023/04/10 07:32:23;;;;;;;8.70;7.20;;;;;;;9.31;63.07;101687.19;5035689;28;20030;-57
2023/04/10 07:34:49;;;;;;;9.32;7.45;;;;;;;9.37;63.94;101678.00;5038424;28;20049;-58
2023/04/10 07:37:14;;;;;;;8.00;7.18;;;;;;;9.45;63.54;101671.28;5032674;28;20030;-57
2023/04/10 07:39:40;;;;;;;10.60;7.57;;;;;;;9.56;63.95;101672.47;5032821;28;20037;-58
2023/04/10 07:42:05;;;;;;;8.05;7.25;;;;;;;9.66;63.14;101665.69;5034046;28;20033;-58
2023/04/10 07:44:31;;;;;;;8.68;7.30;;;;;;;9.76;63.17;101669.50;5025402;28;20043;-54
2023/04/10 07:46:57;;;;;;;8.68;7.72;;;;;;;9.89;62.45;101655.47;5035836;28;20037;-56
2023/04/10 07:49:23;;;;;;;9.60;6.75;;;;;;;10.02;61.67;101651.13;5038806;28;20028;-56
2023/04/10 07:51:48;;;;;;;7.88;7.00;;;;;;;10.19;61.55;101648.28;5049325;28;20033;-56
2023/04/10 07:54:14;;;;;;;8.57;6.93;;;;;;;10.36;61.69;101641.13;5034917;28;20055;-58
2023/04/10 07:56:39;;;;;;;8.07;7.13;;;;;;;10.56;60.80;101647.81;5032120;28;20109;-58
2023/04/10 07:59:05;;;;;;;10.63;7.47;;;;;;;10.71;60.19;101628.22;5047768;28;20458;-57
2023/04/10 08:01:30;;;;;;;9.23;7.50;;;;;;;10.86;59.44;101637.00;5020885;28;20029;-57
2023/04/10 08:03:56;;;;;;;8.23;7.30;;;;;;;11.03;59.20;101619.94;5025209;28;20537;-57
2023/04/10 08:06:21;;;;;;;8.07;7.10;;;;;;;11.15;59.10;101620.09;5032285;28;20036;-58
2023/04/10 08:08:47;;;;;;;9.20;7.22;;;;;;;11.26;59.15;101617.59;5026007;28;20474;-57
2023/04/10 08:11:23;;;;;;;8.60;7.00;;;;;;;11.34;58.62;101620.59;5030623;28;20041;-56
2023/04/10 08:13:50;;;;;;;7.57;6.55;;;;;;;11.42;58.86;101617.38;5017974;28;20426;-58
2023/04/10 08:16:15;;;;;;;8.18;7.00;;;;;;;11.51;59.05;101623.88;5016380;28;20030;-57
2023/04/10 08:18:41;;;;;;;8.50;7.22;;;;;;;11.54;58.35;101616.56;5027326;28;20022;-58
2023/04/10 08:21:06;;;;;;;8.02;7.22;;;;;;;11.61;57.99;101617.00;5018345;28;20414;-58
2023/04/10 08:23:31;;;;;;;8.48;7.22;;;;;;;11.67;58.95;101608.56;5038578;28;20033;-58
2023/04/10 08:25:57;;;;;;;7.93;6.63;;;;;;;11.66;57.36;101606.88;5034503;28;20485;-59
2023/04/10 08:28:22;;;;;;;7.55;6.78;;;;;;;11.65;57.62;101606.00;5002086;28;20033;-57
2023/04/10 08:30:47;;;;;;;7.57;6.78;;;;;;;11.72;58.21;101602.94;5024403;28;20029;-57
2023/04/10 08:33:12;;;;;;;7.43;6.55;;;;;;;11.75;57.68;101603.56;5031016;28;20025;-58
2023/04/10 08:35:38;;;;;;;9.43;7.30;;;;;;;11.78;58.04;101605.19;5021447;28;20025;-58
2023/04/10 08:38:03;;;;;;;8.07;6.82;;;;;;;11.85;58.54;101595.81;5030111;28;20056;-57
2023/04/10 08:40:28;;;;;;;9.27;7.22;;;;;;;11.91;57.54;101590.09;5032067;28;20017;-57
2023/04/10 08:42:54;;;;;;;11.50;7.15;;;;;;;11.96;57.24;101585.28;5032579;28;20043;-57
2023/04/10 08:45:19;;;;;;;8.70;7.07;;;;;;;12.05;57.56;101590.91;5032525;28;20040;-57
2023/04/10 08:47:47;;;;;;;8.95;7.45;;;;;;;12.08;56.77;101588.88;5019642;28;20037;-57
2023/04/10 08:50:16;;;;;;;7.68;6.88;;;;;;;12.09;56.94;101585.28;5020470;28;20030;-58
2023/04/10 08:52:44;;;;;;;8.85;7.20;;;;;;;12.14;57.47;101595.56;5028988;28;20041;-57
2023/04/10 08:55:11;;;;;;;9.05;7.22;;;;;;;12.17;57.52;101592.69;5029846;28;20018;-55
2023/04/10 08:57:37;;;;;;;8.77;6.82;;;;;;;12.25;57.66;101589.50;5032966;28;20049;-58
2023/04/10 09:00:03;;;;;;;9.68;7.18;;;;;;;12.30;57.72;101585.53;5018339;28;20117;-57
2023/04/10 09:02:28;;;;;;;8.20;7.30;;;;;;;12.35;57.99;101587.88;5018772;28;20053;-57
2023/04/10 09:04:55;;;;;;;9.20;6.90;;;;;;;12.44;57.21;101581.00;5028560;28;20036;-57
2023/04/10 09:07:22;;;;;;;8.45;6.88;;;;;;;12.50;56.97;101577.91;5029921;28;20049;-58
2023/04/10 09:09:47;;;;;;;7.63;6.82;;;;;;;12.55;57.16;101584.59;5023053;28;20699;-57
2023/04/10 09:12:14;;;;;;;7.00;6.28;;;;;;;12.58;56.86;101580.88;5027456;28;20459;-57
2023/04/10 09:14:41;;;;;;;7.82;7.03;;;;;;;12.64;56.83;101575.09;5021361;28;20049;-57
2023/04/10 09:17:10;;;;;;;8.48;6.70;;;;;;;12.70;56.29;101579.94;5023024;28;20080;-56
2023/04/10 09:19:36;;;;;;;8.68;7.20;;;;;;;12.72;55.88;101572.72;5030110;28;20033;-57
2023/04/10 09:22:01;;;;;;;9.13;6.55;;;;;;;12.78;56.58;101574.06;5025246;28;20054;-55
2023/04/10 09:24:27;;;;;;;9.23;6.43;;;;;;;12.82;56.67;101572.00;5042940;28;20501;-57
2023/04/10 09:26:53;;;;;;;7.10;6.25;;;;;;;12.88;55.48;101567.06;5019351;28;20072;-56
2023/04/10 09:29:18;;;;;;;8.27;6.40;;;;;;;12.91;55.83;101558.00;5020277;28;20059;-57
2023/04/10 09:31:44;;;;;;;6.97;6.07;;;;;;;12.95;56.26;101546.97;5020638;28;20029;-57
2023/04/10 09:34:21;;;;;;;6.90;6.20;;;;;;;13.01;56.51;101540.34;5029479;28;20073;-56
2023/04/10 09:36:58;;;;;;;6.65;5.95;;;;;;;13.03;56.62;101538.41;5008882;28;20034;-56
2023/04/10 09:39:33;;;;;;;7.32;6.60;;;;;;;13.06;55.74;101532.84;5025233;28;20087;-56
2023/04/10 09:41:58;;;;;;;8.18;6.18;;;;;;;13.08;55.60;101520.25;5028919;28;20040;-56
2023/04/10 09:44:33;;;;;;;8.63;6.38;;;;;;;13.14;56.43;101513.59;5027592;28;20021;-57
2023/04/10 09:47:13;;;;;;;6.63;5.95;;;;;;;13.25;57.05;101515.44;5037887;28;20124;-56
2023/04/10 09:49:47;;;;;;;6.88;5.10;;;;;;;13.28;55.94;101510.69;5031383;28;20371;-55
2023/04/10 09:52:26;;;;;;;5.70;5.10;;;;;;;13.29;55.75;101501.75;5028810;28;20088;-55
2023/04/10 09:54:58;;;;;;;;;;;;;;;13.37;56.53;101511.81;5024559;28;20033;-54
2023/04/10 09:57:25;;;;;;;5.80;4.53;;;;;;;13.39;55.76;101503.69;5027003;28;20377;-57
2023/04/10 09:59:55;;;;;;;5.45;4.95;;;;;;;13.45;55.13;101505.91;5030184;28;20052;-56
2023/04/10 10:02:22;;;;;;;5.40;4.90;;;;;;;13.50;55.37;101507.22;5029047;28;20425;-57
2023/04/10 10:04:49;;;;;;;5.53;5.03;;;;;;;13.56;54.63;101500.56;5041781;28;20025;-56
2023/04/10 10:07:16;;;;;;;5.72;5.22;;;;;;;13.60;54.42;101494.00;5041832;28;20113;-57
2023/04/10 10:09:43;;;;;;;5.45;4.75;;;;;;;13.70;55.08;101496.81;5040769;28;20061;-56
2023/04/10 10:12:10;;;;;;;5.60;4.95;;;;;;;13.79;55.28;101492.53;5040739;28;20684;-57
2023/04/10 10:14:45;;;;;;;8.43;4.80;;;;;;;13.89;54.12;101490.88;5038187;28;20132;-57
2023/04/10 10:17:11;;;;;;;4.93;4.43;;;;;;;13.98;54.46;101479.41;5038729;28;20056;-58
2023/04/10 10:19:52;;;;;;;5.75;4.00;;;;;;;14.09;54.24;101475.03;5032781;28;20064;-58
2023/04/10 10:22:19;;;;;;;4.70;4.10;;;;;;;14.21;52.63;101471.38;5032004;28;20060;-56
2023/04/10 10:24:46;;;;;;;6.93;4.95;;;;;;;14.35;54.05;101472.91;5040600;28;20033;-58
2023/04/10 10:27:15;;;;;;;5.00;4.50;;;;;;;14.53;52.65;101462.50;5038939;28;20094;-58
2023/04/10 10:29:43;;;;;;;4.63;4.22;;;;;;;14.73;52.27;101459.03;5045023;28;20319;-57
2023/04/10 10:32:10;;;;;;;5.05;4.50;;;;;;;14.88;51.16;101448.00;5037284;28;20021;-58
2023/04/10 10:34:36;;;;;;;5.65;4.25;;;;;;;15.02;51.80;101449.50;5034478;28;20108;-58
2023/04/10 10:37:03;;;;;;;4.47;4.03;;;;;;;15.16;50.42;101443.81;5028402;28;20030;-58
2023/04/10 10:39:56;;;;;;;6.60;4.10;;;;;;;15.27;51.65;101438.38;5026032;28;20057;-58
2023/04/10 10:42:27;;;;;;;6.47;4.70;;;;;;;15.34;50.57;101434.19;5032545;28;20026;-54
2023/04/10 10:45:00;;;;;;;4.53;4.10;;;;;;;15.49;51.22;101426.63;5037778;28;20026;-57
2023/04/10 10:47:28;;;;;;;3.83;3.53;;;;;;;15.59;49.98;101425.81;5038307;28;20021;-57
2023/04/10 10:49:58;;;;;;;4.53;4.10;;;;;;;15.61;49.38;101413.97;5026103;28;20033;-55
2023/04/10 10:52:45;;;;;;;4.40;4.03;;;;;;;15.62;49.82;101420.19;5033698;28;20095;-58
2023/04/10 10:55:23;;;;;;;6.00;4.25;;;;;;;15.64;49.59;101410.19;5035286;28;20450;-56
2023/04/10 10:58:00;;;;;;;5.90;3.85;;;;;;;15.64;49.24;101410.19;5030876;28;20093;-57
2023/04/10 11:00:45;;;;;;;4.32;3.92;;;;;;;15.67;48.89;101400.06;5015297;28;20034;-56
2023/04/10 11:03:14;;;;;;;6.18;4.22;;;;;;;15.78;48.94;101395.59;5017391;28;20068;-56
2023/04/10 11:06:01;;;;;;;3.90;3.50;;;;;;;15.93;49.26;101393.38;5024429;28;20130;-56
2023/04/10 11:08:32;;;;;;;4.68;3.38;;;;;;;16.11;48.51;101396.22;5023567;28;20613;-56
2023/04/10 11:11:14;;;;;;;4.60;3.70;;;;;;;16.27;48.08;101396.50;5030366;28;20335;-56
2023/04/10 11:13:41;;;;;;;4.22;3.65;;;;;;;16.31;47.24;101386.34;5021309;28;20122;-57
2023/04/10 11:16:09;;;;;;;4.43;4.00;;;;;;;16.40;47.11;101369.38;5032352;28;20798;-56
2023/04/10 11:18:44;;;;;;;4.20;3.88;;;;;;;16.54;47.70;101378.84;5032530;28;20080;-55
2023/04/10 11:21:13;;;;;;;5.43;3.70;;;;;;;16.59;46.50;101381.94;5022006;28;20022;-57
2023/04/10 11:23:58;;;;;;;;;;;;;;;16.67;48.64;101379.38;5021639;28;20053;-53
2023/04/10 11:26:35;;;;;;;4.15;3.75;;;;;;;16.68;47.00;101353.41;5022322;28;20008;-57
2023/04/10 11:29:16;;;;;;;4.57;3.65;;;;;;;16.70;47.06;101351.41;5015017;28;20037;-57
2023/04/10 11:31:44;;;;;;;4.88;3.85;;;;;;;16.75;45.47;101346.44;5016277;28;20022;-57